createdAt,value
2019-03-02T00:01:03.632Z,29.07
2019-03-02T00:03:31.774Z,36.97
2019-03-02T00:06:00.985Z,32.97
2019-03-02T00:08:29.509Z,37.50
2019-03-02T00:10:57.174Z,34.43
2019-03-02T00:13:26.637Z,36.53
2019-03-02T00:15:53.869Z,37.07
2019-03-02T00:18:21.096Z,36.47
2019-03-02T00:20:50.284Z,35.23
2019-03-02T00:23:18.886Z,36.43
2019-03-02T00:25:46.621Z,34.43
2019-03-02T00:28:13.896Z,36.43
2019-03-02T00:30:41.234Z,40.13
2019-03-02T00:33:08.460Z,38.83
2019-03-02T00:35:36.240Z,35.13
2019-03-02T00:38:04.799Z,38.17
2019-03-02T00:40:33.898Z,38.77
2019-03-02T00:43:01.667Z,37.00
2019-03-02T00:45:28.924Z,34.03
2019-03-02T00:47:56.492Z,41.47
2019-03-02T00:50:24.052Z,35.50
2019-03-02T00:52:51.280Z,39.37
2019-03-02T00:55:18.540Z,37.87
2019-03-02T00:57:45.973Z,34.43
2019-03-02T01:00:15.381Z,34.67
2019-03-02T01:02:42.902Z,35.90
2019-03-02T01:05:10.661Z,39.23
2019-03-02T01:07:37.941Z,36.27
2019-03-02T01:10:07.373Z,39.00
2019-03-02T01:12:34.608Z,36.73
2019-03-02T01:15:05.101Z,38.97
2019-03-02T01:17:31.871Z,37.53
2019-03-02T01:19:59.677Z,37.13
2019-03-02T01:22:26.901Z,36.77
2019-03-02T01:24:54.162Z,36.97
2019-03-02T01:27:21.388Z,35.37
2019-03-02T01:29:51.719Z,34.40
2019-03-02T01:32:17.776Z,36.73
2019-03-02T01:34:45.028Z,38.87
2019-03-02T01:37:12.268Z,36.50
2019-03-02T01:39:39.841Z,35.73
2019-03-02T01:42:08.632Z,37.93
2019-03-02T01:44:35.856Z,39.63
2019-03-02T01:47:03.109Z,38.30
2019-03-02T01:49:30.336Z,40.70
2019-03-02T01:51:58.174Z,37.80
2019-03-02T01:54:26.833Z,40.17
2019-03-02T01:56:54.668Z,39.57
2019-03-02T01:59:22.565Z,42.87
2019-03-02T02:01:49.799Z,45.93
2019-03-02T02:04:18.869Z,49.27
2019-03-02T02:06:46.266Z,44.87
2019-03-02T02:09:13.813Z,45.30
2019-03-02T02:11:41.748Z,47.67
2019-03-02T02:14:08.976Z,51.27
2019-03-02T02:16:38.857Z,52.50
2019-03-02T02:19:05.723Z,49.90
2019-03-02T02:21:32.948Z,45.93
2019-03-02T02:24:00.216Z,52.70
2019-03-02T02:26:27.444Z,53.30
2019-03-02T02:28:54.677Z,52.40
2019-03-02T02:31:22.383Z,54.27
2019-03-02T02:33:49.929Z,58.43
2019-03-02T02:36:18.778Z,58.30
2019-03-02T02:38:53.605Z,57.73
2019-03-02T02:41:21.966Z,62.23
2019-03-02T02:43:45.277Z,52.87
2019-03-02T02:46:12.843Z,57.47
2019-03-02T02:48:40.069Z,61.87
2019-03-02T02:51:09.703Z,55.67
2019-03-02T02:53:40.412Z,57.90
2019-03-02T02:56:05.930Z,64.50
2019-03-02T02:58:33.259Z,61.97
2019-03-02T03:01:00.509Z,59.60
2019-03-02T03:03:27.741Z,66.40
2019-03-02T03:05:55.743Z,65.27
2019-03-02T03:08:38.546Z,62.97
2019-03-02T03:11:06.736Z,62.60
2019-03-02T03:13:35.903Z,61.33
2019-03-02T03:16:03.969Z,69.50
2019-03-02T03:18:31.575Z,64.63
2019-03-02T03:20:58.835Z,64.83
2019-03-02T03:23:26.534Z,63.97
2019-03-02T03:25:57.141Z,62.77
2019-03-02T03:28:26.124Z,67.60
2019-03-02T03:30:52.369Z,65.50
2019-03-02T03:33:19.690Z,68.03
2019-03-02T03:35:47.082Z,66.37
2019-03-02T03:38:14.639Z,64.90
2019-03-02T03:40:42.330Z,64.90
2019-03-02T03:43:09.645Z,64.80
2019-03-02T03:45:42.260Z,69.33
2019-03-02T03:48:06.016Z,65.93
2019-03-02T03:50:33.250Z,65.57
2019-03-02T03:53:00.798Z,69.43
2019-03-02T03:55:28.130Z,68.63
2019-03-02T03:58:00.285Z,68.53
2019-03-02T04:00:24.395Z,66.23
2019-03-02T04:02:51.983Z,62.23
2019-03-02T04:05:19.509Z,66.27
2019-03-02T04:07:51.190Z,67.23
2019-03-02T04:10:24.750Z,70.70
2019-03-02T04:12:46.860Z,68.77
2019-03-02T04:15:14.299Z,70.80
2019-03-02T04:17:41.637Z,66.37
2019-03-02T04:20:13.705Z,73.67
2019-03-02T04:22:44.631Z,67.40
2019-03-02T04:25:13.179Z,69.90
2019-03-02T04:27:39.717Z,74.77
2019-03-02T04:30:07.342Z,69.40
2019-03-02T04:32:34.586Z,69.47
2019-03-02T04:35:01.923Z,66.73
2019-03-02T04:37:29.249Z,67.43
2019-03-02T04:39:57.475Z,71.00
2019-03-02T04:42:25.393Z,70.67
2019-03-02T04:44:52.633Z,66.47
2019-03-02T04:47:22.523Z,67.63
2019-03-02T04:49:51.377Z,65.17
2019-03-02T04:52:18.544Z,65.80
2019-03-02T04:54:45.785Z,71.33
2019-03-02T04:57:13.024Z,71.57
2019-03-02T04:59:40.261Z,68.00
2019-03-02T05:02:07.497Z,64.33
2019-03-02T05:04:34.736Z,68.93
2019-03-02T05:07:02.000Z,66.93
2019-03-02T05:09:29.249Z,68.50
2019-03-02T05:11:56.759Z,65.50
2019-03-02T05:14:24.000Z,69.97
2019-03-02T05:16:51.277Z,65.13
2019-03-02T05:19:18.506Z,69.00
2019-03-02T05:21:45.836Z,68.80
2019-03-02T05:24:13.382Z,77.97
2019-03-02T05:26:40.609Z,67.17
2019-03-02T05:29:07.844Z,72.53
2019-03-02T05:31:37.569Z,72.90
2019-03-02T05:34:04.799Z,71.43
2019-03-02T05:36:33.249Z,67.10
2019-03-02T05:39:00.489Z,71.90
2019-03-02T05:41:28.136Z,72.07
2019-03-02T05:43:55.376Z,75.43
2019-03-02T05:46:25.518Z,73.57
2019-03-02T05:48:51.880Z,74.97
2019-03-02T05:51:19.141Z,71.93
2019-03-02T05:53:46.378Z,71.17
2019-03-02T05:56:13.992Z,73.80
2019-03-02T05:58:41.559Z,74.90
2019-03-02T06:01:08.793Z,70.37
2019-03-02T06:03:36.038Z,73.77
2019-03-02T06:06:03.640Z,78.27
2019-03-02T06:08:32.157Z,74.10
2019-03-02T06:11:02.006Z,69.43
2019-03-02T06:13:29.786Z,73.03
2019-03-02T06:15:57.113Z,68.77
2019-03-02T06:18:24.361Z,71.47
2019-03-02T06:20:51.598Z,74.23
2019-03-02T06:23:19.122Z,74.17
2019-03-02T06:25:46.387Z,81.60
2019-03-02T06:28:13.901Z,70.57
2019-03-02T06:30:44.158Z,75.97
2019-03-02T06:33:10.283Z,69.73
2019-03-02T06:35:37.611Z,79.83
2019-03-02T06:38:04.867Z,76.20
2019-03-02T06:46:23.433Z,74.03
2019-03-02T06:48:51.048Z,75.47
2019-03-02T06:51:18.581Z,75.63
2019-03-02T06:53:45.838Z,77.50
2019-03-02T06:56:13.068Z,79.37
2019-03-02T06:58:40.856Z,80.03
2019-03-02T07:01:08.077Z,81.40
2019-03-02T07:03:35.325Z,80.90
2019-03-02T07:06:02.554Z,80.10
2019-03-02T07:08:32.760Z,82.67
2019-03-02T07:10:59.398Z,80.30
2019-03-02T07:13:27.745Z,78.97
2019-03-02T07:15:54.972Z,80.40
2019-03-02T07:18:38.895Z,82.57
2019-03-02T07:21:06.557Z,85.97
2019-03-02T07:23:34.004Z,82.43
2019-03-02T07:26:01.512Z,82.93
2019-03-02T07:28:28.764Z,81.47
2019-03-02T07:30:55.993Z,81.93
2019-03-02T07:33:23.248Z,80.13
2019-03-02T07:35:51.816Z,80.57
2019-03-02T07:38:20.357Z,81.33
2019-03-02T07:40:48.733Z,86.77
2019-03-02T07:43:16.160Z,87.87
2019-03-02T07:45:43.389Z,85.03
2019-03-02T07:48:10.626Z,86.93
2019-03-02T07:50:37.848Z,82.53
2019-03-02T07:53:05.984Z,89.40
2019-03-02T07:55:33.467Z,86.23
2019-03-02T07:58:00.739Z,94.33
2019-03-02T08:00:28.549Z,95.67
2019-03-02T08:02:56.279Z,84.90
2019-03-02T08:05:24.007Z,85.37
2019-03-02T08:07:51.325Z,88.53
2019-03-02T08:10:18.560Z,92.97
2019-03-02T08:12:46.167Z,102.17
2019-03-02T08:15:16.241Z,102.40
2019-03-02T08:17:45.616Z,99.40
2019-03-02T08:20:13.812Z,93.10
2019-03-02T08:22:42.756Z,86.90
2019-03-02T08:25:10.668Z,86.17
2019-03-02T08:27:37.924Z,88.33
2019-03-02T08:30:07.316Z,93.90
2019-03-02T08:32:34.664Z,84.37
2019-03-02T08:35:02.277Z,91.30
2019-03-02T08:37:29.892Z,90.20
2019-03-02T08:39:58.192Z,93.83
2019-03-02T08:42:25.408Z,85.03
2019-03-02T08:44:54.029Z,82.23
2019-03-02T08:47:21.782Z,80.63
2019-03-02T08:49:49.012Z,82.67
2019-03-02T08:52:16.252Z,78.47
2019-03-02T08:54:43.777Z,76.13
2019-03-02T08:57:11.010Z,81.43
2019-03-02T08:59:38.806Z,74.03
2019-03-02T09:02:06.184Z,76.03
2019-03-02T09:04:33.416Z,72.23
2019-03-02T09:07:00.636Z,78.90
2019-03-02T09:09:33.868Z,78.97
2019-03-02T09:12:01.518Z,75.33
2019-03-02T09:14:30.974Z,73.23
2019-03-02T09:16:58.508Z,77.63
2019-03-02T09:19:25.820Z,74.47
2019-03-02T09:21:53.048Z,69.87
2019-03-02T09:24:20.361Z,68.67
2019-03-02T09:26:47.584Z,72.73
2019-03-02T09:29:14.815Z,75.33
2019-03-02T09:31:42.951Z,66.93
2019-03-02T09:34:10.484Z,69.10
2019-03-02T09:36:37.808Z,68.80
2019-03-02T09:39:06.852Z,72.93
2019-03-02T09:41:34.084Z,68.30
2019-03-02T09:44:01.964Z,66.33
2019-03-02T09:46:29.346Z,72.13
2019-03-02T09:48:56.931Z,68.43
2019-03-02T09:51:26.033Z,67.00
2019-03-02T09:53:53.260Z,60.77
2019-03-02T09:56:20.633Z,61.83
2019-03-02T09:58:48.034Z,62.43
2019-03-02T10:01:15.265Z,61.23
2019-03-02T10:03:42.525Z,59.07
2019-03-02T10:06:10.073Z,61.93
2019-03-02T10:08:37.408Z,60.43
2019-03-02T10:11:06.012Z,58.63
2019-03-02T10:13:34.161Z,54.60
2019-03-02T10:16:04.356Z,49.60
2019-03-02T10:18:30.806Z,54.07
2019-03-02T10:20:58.375Z,52.83
2019-03-02T10:23:25.528Z,48.07
2019-03-02T10:25:52.768Z,51.47
2019-03-02T10:28:19.996Z,45.93
2019-03-02T10:30:47.244Z,46.87
2019-03-02T10:33:14.505Z,44.17
2019-03-02T10:35:42.215Z,43.23
2019-03-02T10:38:09.437Z,43.13
2019-03-02T10:40:36.694Z,39.07
2019-03-02T10:43:03.928Z,39.13
2019-03-02T10:45:33.643Z,40.87
2019-03-02T10:48:01.105Z,40.30
2019-03-02T10:50:28.372Z,40.17
2019-03-02T10:55:24.176Z,39.37
2019-03-02T10:57:51.417Z,36.47
2019-03-02T11:00:25.707Z,37.80
2019-03-02T11:02:56.147Z,36.50
2019-03-02T11:05:35.068Z,38.83
2019-03-02T11:08:08.884Z,30.77
2019-03-02T11:10:54.148Z,37.83
2019-03-02T11:13:30.912Z,30.13
2019-03-02T11:16:16.225Z,33.90
2019-03-02T11:18:55.130Z,35.23
2019-03-02T11:21:30.936Z,31.43
2019-03-02T11:24:08.567Z,34.33
2019-03-02T11:26:47.465Z,30.23
2019-03-02T11:29:36.972Z,31.37
2019-03-02T11:32:21.350Z,33.90
2019-03-02T11:35:00.586Z,25.47
2019-03-02T11:37:45.982Z,25.57
2019-03-02T11:40:39.076Z,27.43
2019-03-02T11:43:16.312Z,27.13
2019-03-02T11:45:58.632Z,23.63
2019-03-02T11:49:00.240Z,27.23
2019-03-02T11:51:54.357Z,23.10
2019-03-02T11:54:29.629Z,22.90
2019-03-02T11:57:04.390Z,21.37
2019-03-02T11:59:45.331Z,20.43
2019-03-02T12:02:40.532Z,21.77
2019-03-02T12:05:28.584Z,21.13
2019-03-02T12:08:28.270Z,21.70
2019-03-02T12:11:14.192Z,18.40
2019-03-02T12:13:59.928Z,20.70
2019-03-02T12:16:49.621Z,15.23
2019-03-02T12:19:48.456Z,16.47
2019-03-02T12:22:35.655Z,17.90
2019-03-02T12:25:25.925Z,17.13
2019-03-02T12:28:15.635Z,16.00
2019-03-02T12:31:20.289Z,19.47
2019-03-02T12:33:54.091Z,17.03
2019-03-02T12:36:37.261Z,17.57
2019-03-02T12:39:36.924Z,16.90
2019-03-02T12:42:30.442Z,18.17
2019-03-02T12:45:10.286Z,18.97
2019-03-02T12:47:57.301Z,17.10
2019-03-02T12:50:35.763Z,12.43
2019-03-02T12:53:13.158Z,17.77
2019-03-02T12:55:48.084Z,16.13
2019-03-02T12:58:37.896Z,14.60
2019-03-02T13:01:27.444Z,11.63
2019-03-02T13:04:10.772Z,17.33
2019-03-02T13:06:53.101Z,20.13
2019-03-02T13:09:40.956Z,17.57
2019-03-02T13:12:46.820Z,15.57
2019-03-02T13:15:32.165Z,16.13
2019-03-02T13:18:17.376Z,21.03
2019-03-02T13:21:11.892Z,18.40
2019-03-02T13:24:14.823Z,15.27
2019-03-02T13:26:57.336Z,18.07
2019-03-02T13:29:37.872Z,11.27
2019-03-02T13:32:24.640Z,9.93
2019-03-02T13:35:29.640Z,14.63
2019-03-02T13:38:01.886Z,16.13
2019-03-02T13:40:48.634Z,14.07
2019-03-02T13:43:35.388Z,13.53
2019-03-02T13:46:10.927Z,15.53
2019-03-02T13:48:58.224Z,16.40
2019-03-02T13:51:52.129Z,14.43
2019-03-02T13:54:54.084Z,14.70
2019-03-02T13:57:41.615Z,10.17
2019-03-02T14:00:29.240Z,12.07
2019-03-02T14:03:28.577Z,13.07
2019-03-02T14:06:14.232Z,14.27
2019-03-02T14:09:04.964Z,18.70
2019-03-02T14:11:54.508Z,14.93
2019-03-02T14:14:44.822Z,13.53
2019-03-02T14:17:51.346Z,13.20
2019-03-02T14:20:33.245Z,17.50
2019-03-02T14:23:31.304Z,15.50
2019-03-02T14:26:29.850Z,13.67
2019-03-02T14:29:16.660Z,14.30
2019-03-02T14:31:50.699Z,14.57
2019-03-02T14:34:40.217Z,16.10
2019-03-02T14:37:32.452Z,14.83
2019-03-02T14:40:22.040Z,11.73
2019-03-02T14:43:00.194Z,14.30
2019-03-02T14:45:39.016Z,11.73
2019-03-02T14:48:14.819Z,9.83
2019-03-02T14:50:59.604Z,22.50
2019-03-02T14:53:45.237Z,14.60
2019-03-02T14:56:36.600Z,10.80
2019-03-02T14:59:18.656Z,13.97
2019-03-02T15:02:05.837Z,16.10
2019-03-02T15:04:51.555Z,13.73
2019-03-02T15:07:42.692Z,15.37
2019-03-02T15:10:31.632Z,15.23
2019-03-02T15:13:10.041Z,12.87
2019-03-02T15:15:54.514Z,18.97
2019-03-02T15:18:57.329Z,15.27
2019-03-02T15:21:39.100Z,14.23
2019-03-02T15:24:21.605Z,16.33
2019-03-02T15:27:05.473Z,13.27
2019-03-02T15:29:51.695Z,12.13
2019-03-02T15:32:44.424Z,10.83
2019-03-02T15:35:36.804Z,16.17
2019-03-02T15:38:12.962Z,12.37
2019-03-02T15:41:09.318Z,11.57
2019-03-02T15:43:45.620Z,12.97
2019-03-02T15:46:35.859Z,11.73
2019-03-02T15:49:14.220Z,10.47
2019-03-02T15:51:49.463Z,15.37
2019-03-02T15:54:32.059Z,14.90
2019-03-02T15:57:05.778Z,15.30
2019-03-02T15:59:58.501Z,12.47
2019-03-02T16:02:42.093Z,15.97
2019-03-02T16:05:27.868Z,15.93
2019-03-02T16:08:23.489Z,15.73
2019-03-02T16:10:59.212Z,13.90
2019-03-02T16:13:49.797Z,18.30
2019-03-02T16:16:32.354Z,15.23
2019-03-02T16:19:19.409Z,18.87
2019-03-02T16:22:09.575Z,12.03
2019-03-02T16:25:04.937Z,12.07
2019-03-02T16:28:05.583Z,10.47
2019-03-02T16:30:41.376Z,11.57
2019-03-02T16:33:34.736Z,6.70
2019-03-02T16:36:07.368Z,5.07
2019-03-02T16:38:48.080Z,6.80
2019-03-02T16:41:43.845Z,7.33
2019-03-02T16:44:29.904Z,7.33
2019-03-02T16:47:03.652Z,5.97
2019-03-02T16:49:36.868Z,10.07
2019-03-02T16:52:18.922Z,10.77
2019-03-02T16:55:01.640Z,10.77
2019-03-02T16:57:54.764Z,7.77
2019-03-02T17:00:29.440Z,6.13
2019-03-02T17:03:07.834Z,5.67
2019-03-02T17:05:54.856Z,4.37
2019-03-02T17:08:41.648Z,8.33
2019-03-02T17:11:35.361Z,5.10
2019-03-02T17:14:23.881Z,7.03
2019-03-02T17:17:02.322Z,5.50
2019-03-02T17:19:48.152Z,6.40
2019-03-02T17:22:33.949Z,7.23
2019-03-02T17:25:16.553Z,7.80
2019-03-02T17:27:58.220Z,10.20
2019-03-02T17:30:39.881Z,6.67
2019-03-02T17:33:44.877Z,8.27
2019-03-02T17:36:32.592Z,12.40
2019-03-02T17:39:23.759Z,11.17
2019-03-02T17:42:12.800Z,10.83
2019-03-02T17:44:58.895Z,10.83
2019-03-02T17:47:45.013Z,6.73
2019-03-02T17:50:41.392Z,8.13
2019-03-02T17:53:28.541Z,8.90
2019-03-02T17:56:07.295Z,12.53
2019-03-02T17:58:41.912Z,9.40
2019-03-02T18:01:28.839Z,6.90
2019-03-02T18:04:13.464Z,7.97
2019-03-02T18:06:51.067Z,7.40
2019-03-02T18:09:28.514Z,5.77
2019-03-02T18:12:23.360Z,5.60
2019-03-02T18:15:05.188Z,4.97
2019-03-02T18:18:01.216Z,3.87
2019-03-02T18:20:29.591Z,6.37
2019-03-02T18:22:56.826Z,5.03
2019-03-02T18:25:24.093Z,4.57
2019-03-02T18:27:51.320Z,5.67
2019-03-02T18:30:18.982Z,5.93
2019-03-02T18:32:47.312Z,6.20
2019-03-02T18:35:14.874Z,5.27
2019-03-02T18:37:42.699Z,5.13
2019-03-02T18:40:11.416Z,6.17
2019-03-02T18:42:38.644Z,6.50
2019-03-02T18:45:07.328Z,6.00
2019-03-02T18:47:34.912Z,4.97
2019-03-02T18:50:13.813Z,6.63
2019-03-02T18:52:57.922Z,5.70
2019-03-02T18:55:25.770Z,6.67
2019-03-02T18:57:54.332Z,5.17
2019-03-02T19:00:25.323Z,6.83
2019-03-02T19:02:52.852Z,6.00
2019-03-02T19:05:28.248Z,6.27
2019-03-02T19:07:57.204Z,6.27
2019-03-02T19:10:24.463Z,5.93
2019-03-02T19:12:51.681Z,4.47
2019-03-02T19:15:18.932Z,4.40
2019-03-02T19:17:46.480Z,5.10
2019-03-02T19:20:14.652Z,4.33
2019-03-02T19:22:41.879Z,5.30
2019-03-02T19:25:09.270Z,5.43
2019-03-02T19:27:36.736Z,6.77
2019-03-02T19:30:04.476Z,4.90
2019-03-02T19:32:31.717Z,6.23
2019-03-02T19:34:58.969Z,5.40
2019-03-02T19:37:26.208Z,4.83
2019-03-02T19:39:53.817Z,4.30
2019-03-02T19:42:21.389Z,4.67
2019-03-02T19:44:49.019Z,5.07
2019-03-02T19:47:16.310Z,4.90
2019-03-02T19:49:43.903Z,4.53
2019-03-02T19:52:12.100Z,4.93
2019-03-02T19:54:39.389Z,5.53
2019-03-02T19:57:06.920Z,5.20
2019-03-02T19:59:34.165Z,4.87
2019-03-02T20:02:03.320Z,5.70
2019-03-02T20:04:30.882Z,5.67
2019-03-02T20:06:58.188Z,5.77
2019-03-02T20:09:25.763Z,6.03
2019-03-02T20:11:53.805Z,6.30
2019-03-02T20:14:21.361Z,5.90
2019-03-02T20:16:48.527Z,7.23
2019-03-02T20:19:15.765Z,8.53
2019-03-02T20:21:43.385Z,7.00
2019-03-02T20:24:11.084Z,6.57
2019-03-02T20:26:38.324Z,7.40
2019-03-02T20:29:05.552Z,8.13
2019-03-02T20:31:32.812Z,7.50
2019-03-02T20:34:00.140Z,7.50
2019-03-02T20:36:27.397Z,10.83
2019-03-02T20:38:54.628Z,8.10
2019-03-02T20:41:21.968Z,8.03
2019-03-02T20:43:49.513Z,11.33
2019-03-02T20:46:18.398Z,9.63
2019-03-02T20:48:45.889Z,9.80
2019-03-02T20:51:13.460Z,9.93
2019-03-02T20:53:40.695Z,12.40
2019-03-02T20:56:07.948Z,13.23
2019-03-02T20:58:35.256Z,11.73
2019-03-02T21:01:02.616Z,12.40
2019-03-02T21:03:29.844Z,11.90
2019-03-02T21:05:57.761Z,11.60
2019-03-02T21:08:25.313Z,12.80
2019-03-02T21:10:52.966Z,11.80
2019-03-02T21:13:20.209Z,12.13
2019-03-02T21:15:47.527Z,12.43
2019-03-02T21:18:14.902Z,12.23
2019-03-02T21:20:42.686Z,13.17
2019-03-02T21:23:12.009Z,11.20
2019-03-02T21:25:39.241Z,16.17
2019-03-02T21:28:06.817Z,14.83
2019-03-02T21:30:35.895Z,16.50
2019-03-02T21:33:03.220Z,13.57
2019-03-02T21:35:30.454Z,11.07
2019-03-02T21:38:00.824Z,14.07
2019-03-02T21:40:28.085Z,12.53
2019-03-02T21:42:55.639Z,13.10
2019-03-02T21:45:23.304Z,13.37
2019-03-02T21:47:51.228Z,13.93
2019-03-02T21:50:20.872Z,16.10
2019-03-02T21:52:48.112Z,13.40
2019-03-02T21:55:15.400Z,12.77
2019-03-02T21:57:42.930Z,12.30
2019-03-02T22:00:13.447Z,13.70
2019-03-02T22:02:40.773Z,13.50
2019-03-02T22:05:07.998Z,11.63
2019-03-02T22:07:35.932Z,14.27
2019-03-02T22:10:04.192Z,10.83
2019-03-02T22:12:31.545Z,12.97
2019-03-02T22:14:59.129Z,12.40
2019-03-02T22:17:26.397Z,16.73
2019-03-02T22:19:53.623Z,11.50
2019-03-02T22:22:21.276Z,13.07
2019-03-02T22:24:48.745Z,12.37
2019-03-02T22:27:15.956Z,13.60
2019-03-02T22:29:43.217Z,12.90
2019-03-02T22:32:10.444Z,11.27
2019-03-02T22:34:37.668Z,12.43
2019-03-02T22:37:04.889Z,12.23
2019-03-02T22:39:32.457Z,10.77
2019-03-02T22:42:00.020Z,11.40
2019-03-02T22:44:27.685Z,14.77
2019-03-02T22:46:54.960Z,10.90
2019-03-02T22:49:22.364Z,10.30
2019-03-02T22:51:49.680Z,12.83
2019-03-02T22:54:17.200Z,11.17
2019-03-02T22:56:44.431Z,12.33
2019-03-02T22:59:11.177Z,12.00
2019-03-02T23:01:59.248Z,9.40
2019-03-02T23:04:26.556Z,15.43
2019-03-02T23:06:53.785Z,9.23
2019-03-02T23:09:21.013Z,10.70
2019-03-02T23:11:48.232Z,9.20
2019-03-02T23:14:15.813Z,9.57
2019-03-02T23:16:43.039Z,12.33
2019-03-02T23:19:10.913Z,9.57
2019-03-02T23:21:38.460Z,12.00
2019-03-02T23:24:06.190Z,9.87
2019-03-02T23:26:33.420Z,9.27
2019-03-02T23:29:00.974Z,9.40
2019-03-02T23:31:28.253Z,8.77
2019-03-02T23:33:55.477Z,9.77
2019-03-02T23:36:22.701Z,6.77
2019-03-02T23:38:49.956Z,8.90
2019-03-02T23:41:17.640Z,7.80
2019-03-02T23:43:45.908Z,7.80
2019-03-02T23:46:13.436Z,12.53
2019-03-02T23:48:40.689Z,9.57
2019-03-02T23:51:08.461Z,7.17
2019-03-02T23:53:35.822Z,8.33
2019-03-02T23:56:03.043Z,5.67
2019-03-02T23:58:30.276Z,9.93
